Terminal Aerodrome Forecast
Issued by NWS

Home | Current Version | Previous Version | Text Only | Print | Product List | Glossary Off
Versions: 1 2 3 4 5 6 7 8 9 10 11 12 13 14 15 16 17 18 19 20 21 22 23 24

000
FTUS43 KABR 191700
TAFATY
TAF
KATY 191740Z 1918/2018 19013KT 2SM BR OVC002
     FM192100 19010KT 4SM BR OVC005
     FM200300 19007KT 2SM BR OVC002
     FM201600 19009KT 4SM BR OVC005=

USA.gov is the U.S. government's official web portal to all federal, state and local government web resources and services.